Tiempo atmosférico en la estación meteorológica de San Clemente, Cuenca (728 m.)



Fecha
DESCASC
Temp. máxima en grados centígrados (hora)
DESCASC
Temp. mínima en grados centígrados (hora)
DESCASC
Temp. media en grados centígrados
DESCASC
Racha de viento máxima en m/sg (hora)
DESCASC
Velocidad máxima media en intervalos de 10 minutos(hora)
DESCASC
Precipitaciones diarias en mm
DESCASC
Precipitaciones de 00:00 a 06:00 en mm
DESCASC
Precipitaciones de 06:00 a 12:00 en mm
DESCASC
Precipitaciones de 12:00 a 18:00 en mm
DESCASC
Precipitaciones de 18:00 a 24:00 en mm
DESCASC
18-04-2019 11 (00:00) 6.5 (23:59) 8.8 10 (00:20) 5.28 (15:40) 21.2 3 7.8 10.4 0
17-04-2019 21.4 (17:20) 9.1 (03:00) 15.3 16.94 (16:30) 9.17 (17:40) 0 0 0 0 0
16-04-2019 21.8 (16:40) 5.4 (00:00) 13.6 14.17 (23:59) 8.06 (22:50) 0 0 0 0 0
15-04-2019 26.2 (17:10) 8.1 (00:00) 17.2 16.94 (16:30) 10.83 (19:00) 0 0 0 0 0
14-04-2019 23.1 (17:10) 4.9 (00:00) 14 9.72 (17:30) 6.11 (18:00) 0 0 0 0 0
13-04-2019 20.4 (17:30) 0.5 (00:00) 10.4 11.39 (16:20) 6.11 (14:30) 0 0 0 0 0
12-04-2019 17.2 (17:40) 2.1 (00:00) 9.7 13.33 (16:00) 7.78 (16:00) 0 0 0 0 0
11-04-2019 15.6 (15:50) 0.4 (00:00) 8 12.78 (17:40) 8.06 (16:40) 0 0 0 0 0
10-04-2019 13.8 (14:50) 4.1 (00:00) 9 14.17 (17:50) 9.72 (13:40) 0 0 0 0 0
09-04-2019 12.8 (15:00) 4 (00:00) 8.4 18.33 (15:40) 12.5 (15:10) 2.6 0 0 1.8 0.8
08-04-2019 15.4 (16:00) 6.9 (00:00) 11.1 12.78 (14:20) 9.17 (10:30) 5 0.4 4.4 0.2 0
07-04-2019 13.5 (15:30) 3.7 (00:00) 8.6 14.72 (17:40) 10.28 (17:40) 0.4 0.2 0.2 0 0
06-04-2019 10.8 (16:30) 3.1 (00:00) 7 18.61 (13:40) 12.5 (17:10) 1.8 0.2 0.6 1 0
05-04-2019 9 (14:50) 2.3 (00:00) 5.6 14.44 (18:30) 9.17 (18:30) 2.8 0 0.6 1.8 0.4
04-04-2019 14.3 (17:50) 0.4 (00:00) 7.4 11.39 (16:10) 5.83 (17:30) 0 0 0 0 0
03-04-2019 18.7 (16:40) 3.9 (00:00) 11.3 -- (--) -- (--) 0 0 0 0 0
02-04-2019 17.6 (16:30) 5.8 (00:00) 11.7 10.83 (19:20) 8.06 (17:20) 0 0 0 0 0
01-04-2019 15.3 (15:30) 8.1 (00:00) 11.7 8.61 (17:20) 6.39 (17:20) 1 0.8 0.2 0 0
31-03-2019 9.5 (15:20) 6.1 (00:00) 7.8 10 (03:50) 6.39 (07:40) 9 0 7.4 1.4 0.2
30-03-2019 17.4 (16:10) 4.7 (00:00) 11 12.5 (11:20) 7.78 (18:40) 0 0 0 0 0
29-03-2019 15.5 (17:00) 2.7 (00:00) 9.1 13.33 (12:30) 7.78 (14:30) 0 0 0 0 0
28-03-2019 17.7 (15:10) -0.7 (-00:0) 8.5 12.5 (16:30) 5.56 (17:10) 0 0 0 0 0
27-03-2019 16.9 (16:10) 1.6 (00:00) 9.2 12.5 (02:10) 7.22 (00:40) 0 0 0 0 0
26-03-2019 18.4 (15:10) 4.1 (00:00) 11.2 14.17 (11:30) 8.33 (14:10) 0 0 0 0 0
25-03-2019 21.5 (16:30) 1.9 (00:00) 11.7 9.72 (14:20) 4.72 (14:40) 0 0 0 0 0
24-03-2019 20 (15:40) 2.3 (00:00) 11.1 12.78 (12:40) 6.67 (14:10) 0 0 0 0 0
23-03-2019 18.1 (14:20) 2.1 (00:00) 10.1 14.44 (14:20) 8.61 (13:00) 0 0 0 0 0
22-03-2019 17.2 (15:40) -1.6 (-00:0) 7.8 12.78 (14:40) 7.78 (14:40) 0 0 0 0 0
21-03-2019 14.3 (14:10) -1.5 (-00:0) 6.4 10.28 (17:20) 5.83 (15:40) 0 0 0 0 0

Gráficas

Temp. máximas Temp. mínimas Temp. medias Precipitaciones Rachas de viento máximas Velocidades máximas media en intervalos de 10 minutos

Datos horarios

Fecha y hora oficial Temperatura (ºC) Velocidad del viento (km/h) Dirección del viento Racha (km/h) Dirección de racha Precipitación (mm) Presión (hPa) Tendencia (hPa) Humedad (%)
2019-04-19 23:00:00 7.5 10 Este 19 Este 0.6 934.2 1.2 96
2019-04-19 22:00:00 7.4 5 Este 9 Nordeste 1.2 934.3 1.6 96
2019-04-19 21:00:00 7.4 3 Este 5 Este 1.6 934 1.6 95
2019-04-19 20:00:00 7.5 3 Norte 8 Sudeste 1.8 933 0.9 94
2019-04-19 19:00:00 7.4 6 Sudeste 13 Sudeste 2.6 932.7 0.5 93
2019-04-19 18:00:00 7.7 10 Sudeste 15 Sudeste 3.2 932.4 0.3 94
2019-04-19 17:00:00 7.8 10 Sudeste 22 Sudeste 3.4 932.1 -0.2 94
2019-04-19 16:00:00 7.8 13 Sudeste 26 Sudeste 4 932.2 0.1 93
2019-04-19 15:00:00 8.2 17 Sudeste 28 Sudeste 5.6 932.1 0.6 92
2019-04-19 14:00:00 8.9 12 Sudeste 22 Sudeste 5.6 932.3 0.5 91
2019-04-19 13:00:00 9.6 10 Sudeste 16 Sudeste 2 932.1 0.8 92
2019-04-19 12:00:00 10 7 Sudoeste 19 Sudoeste 0.2 931.5 0 86
2019-04-19 11:00:00 9.8 10 Sudoeste 18 Sur 0 931.8 1 87
2019-04-19 10:00:00 9.3 6 Sur 10 Sur 0 931.3 1.2 91
2019-04-19 09:00:00 8.5 5 Sur 10 Sur 0 931.5 1.6 96
2019-04-19 08:00:00 8.1 5 Sur 8 Sudoeste 0 930.8 0.9 97
2019-04-19 07:00:00 7.9 4 Sur 9 Sur 0 930.1 0.3 97
2019-04-19 06:00:00 7.8 6 Sur 12 Sur 0 929.9 0.3 97
2019-04-19 05:00:00 8.1 5 Sudoeste 10 Sudoeste 0 929.9 0.2 95
2019-04-19 04:00:00 8.5 5 Sur 11 Sur 0 929.8 0.1 95
2019-04-19 03:00:00 8.4 4 Sudoeste 10 Sudoeste 0 929.6 0.2 95
2019-04-19 02:00:00 8 4 Sur 11 Sur 0 929.7 0.6 96
2019-04-19 01:00:00 7.3 7 Sur 11 Sudoeste 0 929.7 0.7 96
2019-04-19 00:00:00 6.5 6 Sur 9 Sur 0 929.4 1.2 95
2019-04-18 23:00:00 7.8 4 Sudoeste 13 Sur 0 929.1 1.4 93
2019-04-18 22:00:00 9 7 Sur 12 Sur 0 929 1.3 92
2019-04-18 21:00:00 9.4 8 Sur 19 Sur 0 928.2 0.7 89
2019-04-18 20:00:00 9.9 9 Sur 23 Sudoeste 0 927.7 0.2 89
2019-04-18 19:00:00 10.2 11 Sudoeste 20 Sudoeste 0 927.7 0.5 87
2019-04-18 18:00:00 10 11 Sudoeste 22 Sudoeste 0 927.5 -0.7 84
2019-04-18 17:00:00 10 14 Oeste 22 Noroeste 0 927.5 -1.4 87
2019-04-18 16:00:00 9.3 8 Sudoeste 31 Sur 1 927.2 -2.3 91
2019-04-18 15:00:00 8.9 10 Sur 15 Sudoeste 1.8 928.2 -1.6 94
2019-04-18 14:00:00 9.1 11 Sur 19 Este 4.2 928.9 -1.1 95
2019-04-18 13:00:00 8.8 13 Noroeste 17 Noroeste 3.4 929.5 -0.4 92
2019-04-18 12:00:00 9.5 9 Sudoeste 16 Sudoeste 1 929.8 0.5 90
2019-04-18 11:00:00 9.9 8 Sur 24 Sur 0.2 930 1.5 84
2019-04-18 10:00:00 9.5 11 Sudoeste 21 Sudoeste 0.6 929.9 1 85
2019-04-18 09:00:00 9.3 7 Sudeste 24 Este 0.4 929.3 0 90
2019-04-18 08:00:00 9 10 Este 30 Sudeste 1.8 928.5 -1.5 91
2019-04-18 07:00:00 8.9 12 Este 26 Sudeste 3.8 928.9 -1.5 94
2019-04-18 06:00:00 9.2 9 Sudeste 15 Este 2.6 929.3 -1.3 92
2019-04-18 05:00:00 9.7 11 Sur 18 Sur 0.4 930 -1 87
2019-04-18 04:00:00 10.1 9 Sur 30 Sur 0 930.4 -1.3 80
2019-04-18 03:00:00 10.3 15 Sur 30 Sur 0 930.6 -0.7 80
2019-04-18 02:00:00 10.5 15 Sur 35 Sudoeste 0 931 -0.4 81
2019-04-18 01:00:00 10.7 16 Sudoeste 36 Sur 0 931.7 2.3 81
2019-04-18 00:00:00 11 16 Sur 40 Sudoeste 0 931.3 2.1 77
2019-04-17 23:00:00 11.6 19 Sudoeste 43 Sur 0 931.4 3.8 77
2019-04-17 22:00:00 12.2 20 Sur 42 Sur 0 929.4 2.3 75
2019-04-17 21:00:00 13.8 20 Sur 46 Sur 0 929.2 2.7 69
2019-04-17 20:00:00 16 23 Sur 53 Sur 0 927.6 0.9 61
2019-04-17 19:00:00 18.3 24 Sur 52 Sudoeste 0 927.1 -0.5 51
2019-04-17 18:00:00 20.6 30 Sudoeste 60 Sudoeste 0 926.5 -2.1 36
2019-04-17 17:00:00 21.1 30 Sudoeste 61 Sudoeste 0 926.7 -2.4 36
2019-04-17 16:00:00 20.8 29 Sudoeste 52 Sudoeste 0 927.6 -2.7 36
2019-04-17 15:00:00 20.1 28 Sudoeste 55 Sudoeste 0 928.6 -2.2 39
2019-04-17 14:00:00 19.3 29 Sudoeste 54 Sudoeste 0 929.1 -1.9 39
2019-04-17 13:00:00 17.8 24 Sudoeste 50 Sudoeste 0 930.3 -0.9 48
2019-04-17 12:00:00 15.7 25 Sur 50 Sur 0 930.8 -0.6 55
2019-04-17 11:00:00 13.6 29 Sur 56 Sudoeste 0 931 -0.5 63
2019-04-17 10:00:00 11.7 31 Sudoeste 53 Sur 0 931.2 -0.2 70
2019-04-17 09:00:00 10.9 27 Sudoeste 51 Sur 0 931.4 -0.3 75
2019-04-17 08:00:00 9.9 26 Sur 50 Sudoeste 0 931.5 -0.3 80
2019-04-17 07:00:00 9.7 27 Sur 47 Sur 0 931.4 -1 82
2019-04-17 06:00:00 9.8 24 Sur 45 Sudoeste 0 931.7 -1.3 82
2019-04-17 05:00:00 9.5 20 Sur 42 Sudoeste 0 931.8 -1.3 82
2019-04-17 04:00:00 9.4 23 Sur 49 Sudoeste 0 932.4 -0.4 82
2019-04-17 03:00:00 9.1 19 Sur 47 Sur 0 933 0.4 83
2019-04-17 02:00:00 9.9 23 Sur 43 Sur 0 933.1 0.3 76
2019-04-17 01:00:00 10.7 24 Sur 48 Sur 0 932.8 0.4 72
2019-04-17 00:00:00 11.6 27 Sur 51 Sudoeste 0 932.6 0.9 69
2019-04-16 23:00:00 12.6 25 Sur 50 Sur 0 932.8 1.9 66
2019-04-16 22:00:00 14.1 24 Sur 44 Sur 0 932.4 1.4 64
2019-04-16 21:00:00 16.3 22 Sur 43 Sudoeste 0 931.7 0.1 57
2019-04-16 20:00:00 20.7 15 Sudoeste 34 Sudoeste 0 930.9 -1.4 25
2019-04-16 19:00:00 21.3 14 Sudoeste 26 Sudoeste 0 931 -1.7 24
2019-04-16 18:00:00 21.3 12 Sudoeste 26 Oeste 0 931.6 -1.8 28
2019-04-16 17:00:00 21.4 12 Sudoeste 27 Sudoeste 0 932.3 -1.4 25
2019-04-16 16:00:00 21.2 8 Sudoeste 23 Sur 0 932.7 -1.7 28
2019-04-16 15:00:00 20.2 9 Sur 24 Sudoeste 0 933.4 -1.6 30
2019-04-16 14:00:00 19 11 Sudoeste 26 Sur 0 933.7 -1.4 34
2019-04-16 13:00:00 18.3 9 Sur 32 Sudeste 0 934.4 -0.7 35
2019-04-16 12:00:00 16.9 7 Sudeste 20 Sudeste 0 935 0.3 39
2019-04-16 11:00:00 15.4 13 Sudeste 21 Sudeste 0 935.1 0.6 48
2019-04-16 10:00:00 12.6 6 Sudeste 14 Sudeste 0 935.1 1.4 61
2019-04-16 09:00:00 9.2 6 Sudeste 10 Sudeste 0 934.7 0.9 76
2019-04-16 08:00:00 6.9 4 Sudoeste 13 Nordeste 0 934.5 0.5 84
2019-04-16 07:00:00 5.6 4 Noroeste 16 Nordeste 0 933.7 0.2 89
2019-04-16 06:00:00 6.8 11 Nordeste 18 Norte 0 933.8 0.5 88
2019-04-16 05:00:00 6.5 11 Norte 19 Norte 0 934 0.4 85
2019-04-16 04:00:00 7.4 13 Norte 18 Norte 0 933.5 0.3 81
2019-04-16 03:00:00 8.6 9 Norte 17 Norte 0 933.3 0.3 76
2019-04-16 02:00:00 10.1 13 Norte 26 Norte 0 933.6 1.5 70
2019-04-16 01:00:00 12.5 18 Norte 30 Nordeste 0 933.2 2.6 62
2019-04-16 00:00:00 13.8 18 Nordeste 31 Nordeste 0 933 4.1 63
2019-04-15 23:00:00 14.7 22 Nordeste 46 Nordeste 0 932.1 3.7 58
2019-04-15 22:00:00 17.5 32 Nordeste 48 Norte 0 930.6 2.5 47
2019-04-15 21:00:00 20.2 24 Noroeste 45 Noroeste 0 928.9 0.8 26
2019-04-15 20:00:00 22 26 Noroeste 50 Noroeste 0 928.4 0.1 24
2019-04-15 19:00:00 24 39 Noroeste 55 Noroeste 0 928.1 -0.4 20
2019-04-15 18:00:00 25.1 33 Noroeste 53 Noroeste 0 928.1 -0.6 19
2019-04-15 17:00:00 25.9 28 Noroeste 61 Noroeste 0 928.3 -1.2 21
2019-04-15 16:00:00 25.6 32 Noroeste 47 Noroeste 0 928.5 -1.7 22
2019-04-15 15:00:00 24.4 17 Noroeste 36 Noroeste 0 928.7 -2 33
2019-04-15 14:00:00 21.7 13 Sudoeste 28 Sudoeste 0 929.5 -0.9 46
2019-04-15 13:00:00 20.2 13 Sudoeste 28 Sudoeste 0 930.2 -0.6 49
2019-04-15 12:00:00 19.3 14 Sudoeste 29 Sur 0 930.7 -0.8 51
2019-04-15 11:00:00 18.7 15 Sudoeste 30 Sur 0 930.4 -0.6 54
2019-04-15 10:00:00 14.8 8 Sur 12 Sur 0 930.8 -0.2 71
2019-04-15 09:00:00 11.1 8 Este 11 Este 0 931.5 0.4 80
2019-04-15 08:00:00 8.3 7 Este 11 Sudeste 0 931 -0.5 85
2019-04-15 07:00:00 8.2 9 Este 13 Este 0 931 -0.9 86
2019-04-15 06:00:00 8.8 7 Este 13 Este 0 931.1 -1 83
2019-04-15 05:00:00 8.5 9 Este 12 Este 0 931.5 -1.1 82
2019-04-15 04:00:00 9.5 9 Este 11 Este 0 931.9 -1.1 80
2019-04-15 03:00:00 10.5 3 Sudeste 6 Sudeste 0 932.1 -0.8 76
2019-04-15 02:00:00 11.1 3 Sudeste 5 Sudeste 0 932.6 -0.3 70
2019-04-15 01:00:00 12.1 4 Sudoeste 9 Sudoeste 0 933 0.3 68
2019-04-15 00:00:00 13.1 6 Norte 12 Norte 0 932.9 0.7 63
2019-04-14 23:00:00 14.7 8 Norte 13 Norte 0 932.9 1.3 59
2019-04-14 22:00:00 15.8 9 Norte 13 Noroeste 0 932.7 1.2 54
2019-04-14 21:00:00 18.2 10 Noroeste 24 Noroeste 0 932.2 0.7 46
2019-04-14 20:00:00 21.2 19 Norte 28 Norte 0 931.6 -0.2 39
2019-04-14 19:00:00 22.2 16 Norte 32 Norte 0 931.5 -1.1 39
2019-04-14 18:00:00 22.7 22 Norte 35 Norte 0 931.5 -1.6 38
2019-04-14 17:00:00 22.5 17 Norte 32 Norte 0 931.8 -1.7 37
2019-04-14 16:00:00 21.9 18 Norte 33 Norte 0 932.6 -1.4 36
2019-04-14 15:00:00 21.5 15 Norte 29 Norte 0 933.1 -1.3 31
2019-04-14 14:00:00 19.8 15 Norte 29 Norte 0 933.5 -1.1 38
2019-04-14 13:00:00 18.8 14 Norte 26 Norte 0 934 -0.3 48
2019-04-14 12:00:00 16.8 15 Norte 24 Norte 0 934.4 -0.1 52
2019-04-14 11:00:00 14.7 13 Norte 22 Norte 0 934.6 0.4 56
2019-04-14 10:00:00 12.8 15 Norte 22 Norte 0 934.3 0.5 57
2019-04-14 09:00:00 9.3 6 Norte 12 Norte 0 934.5 0.6 64
2019-04-14 08:00:00 6.3 4 Este 6 Este 0 934.2 0 70
2019-04-14 07:00:00 5.5 3 Norte 12 Norte 0 933.8 -0.3 66
2019-04-14 06:00:00 5.9 11 Norte 13 Norte 0 933.9 -0.2 61
2019-04-14 05:00:00 5.4 8 Norte 11 Norte 0 934.2 -0.3 59
2019-04-14 04:00:00 7 10 Norte 13 Norte 0 934.1 -0.8 55
2019-04-14 03:00:00 7.2 8 Nordeste 13 Norte 0 934.1 -0.6 52
2019-04-14 02:00:00 7.3 10 Norte 13 Norte 0 934.5 0 47
2019-04-14 01:00:00 6.9 5 Nordeste 6 Noroeste 0 934.9 0.7 49
2019-04-14 00:00:00 8.2 3 Sur 10 Oeste 0 934.7 1.1 46
2019-04-13 23:00:00 9.6 4 Sudeste 15 Nordeste 0 934.5 1.2 40
2019-04-13 22:00:00 14.1 14 Nordeste 16 Nordeste 0 934.2 1.2 21
2019-04-13 21:00:00 14.6 13 Nordeste 16 Nordeste 0 933.6 0.6 22
2019-04-13 20:00:00 18.7 11 Norte 27 Norte 0 933.3 0.1 20
2019-04-13 19:00:00 19.9 14 Norte 36 Norte 0 933 -0.6 14
2019-04-13 18:00:00 20.1 18 Norte 33 Norte 0 933 -0.9 15
2019-04-13 17:00:00 20 18 Norte 41 Norte 0 933.2 -1.1 17
2019-04-13 16:00:00 19.6 16 Norte 37 Norte 0 933.6 -1.1 20
2019-04-13 15:00:00 18.9 18 Norte 37 Norte 0 933.9 -1.5 23
2019-04-13 14:00:00 17.9 17 Norte 36 Norte 0 934.3 -1 25
2019-04-13 13:00:00 16.7 18 Norte 33 Norte 0 934.7 -0.5 31
2019-04-13 12:00:00 15.2 17 Norte 26 Norte 0 935.4 0.4 34
2019-04-13 11:00:00 12.1 14 Norte 22 Norte 0 935.3 0.8 44
2019-04-13 10:00:00 8.1 8 Norte 16 Norte 0 935.2 1.2 58
2019-04-13 09:00:00 5.1 7 Norte 14 Norte 0 935 1.4 70
2019-04-13 08:00:00 1.1 3 Este 9 Este 0 934.5 1.2 80
2019-04-13 07:00:00 0.9 6 Este 9 Este 0 934 0.5 79
2019-04-13 06:00:00 1.5 3 Este 10 Norte 0 933.6 0 77
2019-04-13 05:00:00 3.8 5 Norte 7 Norte 0 933.3 -0.7 71
2019-04-13 04:00:00 4.6 5 Nordeste 10 Este 0 933.5 -0.2 66
2019-04-13 03:00:00 5.6 6 Este 20 Este 0 933.6 0.2 62
2019-04-13 02:00:00 6.1 13 Norte 21 Noroeste 0 934 0.8 60
2019-04-13 01:00:00 6.9 6 Este 19 Nordeste 0 933.7 0.8 57
2019-04-13 00:00:00 11.3 17 Nordeste 20 Nordeste 0 933.4 1 39
2019-04-12 23:00:00 8.3 11 Nordeste 16 Nordeste 0 933.2 1.1 55
2019-04-12 22:00:00 10.5 13 Nordeste 16 Nordeste 0 932.9 0.9 44
2019-04-12 21:00:00 12.3 11 Nordeste 19 Nordeste 0 932.4 0.4 39
2019-04-12 20:00:00 15.8 16 Nordeste 31 Nordeste 0 932.1 0 29
2019-04-12 19:00:00 16.6 23 Nordeste 39 Nordeste 0 932 -0.6 28
2019-04-12 18:00:00 16.9 26 Norte 45 Norte 0 932 -1.1 30
2019-04-12 17:00:00 16.5 24 Norte 45 Norte 0 932.1 -1.2 31
2019-04-12 16:00:00 16.1 28 Nordeste 48 Nordeste 0 932.6 -0.9 31
2019-04-12 15:00:00 15.5 21 Este 43 Nordeste 0 933.1 -0.7 32
2019-04-12 14:00:00 14.3 21 Nordeste 46 Nordeste 0 933.3 -0.8 34
2019-04-12 13:00:00 14 26 Nordeste 40 Nordeste 0 933.5 -0.4 37
2019-04-12 12:00:00 12.7 26 Nordeste 40 Nordeste 0 933.8 -0.2 41
2019-04-12 11:00:00 10.8 14 Nordeste 26 Nordeste 0 934.1 0.3 52
2019-04-12 10:00:00 8.7 14 Este 24 Este 0 933.9 0.5 56
2019-04-12 09:00:00 6.9 17 Nordeste 23 Nordeste 0 934 0.7 61
2019-04-12 08:00:00 4.7 14 Este 24 Nordeste 0 933.8 0.5 70
2019-04-12 07:00:00 3.2 15 Nordeste 20 Nordeste 0 933.4 0.2 77
2019-04-12 06:00:00 4 14 Este 23 Este 0 933.3 -0.2 76
2019-04-12 05:00:00 4.6 12 Este 24 Este 0 933.3 -0.6 74
2019-04-12 04:00:00 4.9 12 Este 20 Este 0 933.2 -0.5 74
2019-04-12 03:00:00 3.9 7 Este 14 Este 0 933.5 0 75
2019-04-12 02:00:00 5.6 9 Este 20 Este 0 933.9 0.4 67
2019-04-12 01:00:00 7.2 13 Este 25 Este 0 933.7 0.6 59
2019-04-12 00:00:00 8.3 17 Este 25 Este 0 933.5 1 55
2019-04-11 23:00:00 9.3 15 Este 29 Nordeste 0 933.5 1.6 52
2019-04-11 22:00:00 10.2 19 Nordeste 26 Nordeste 0 933.1 1.2 48
2019-04-11 21:00:00 11.2 17 Nordeste 27 Nordeste 0 932.5 0.6 40
2019-04-11 20:00:00 14.1 19 Nordeste 38 Nordeste 0 931.9 0.1 30
2019-04-11 19:00:00 14.8 25 Este 39 Nordeste 0 931.9 -0.1 29
2019-04-11 18:00:00 15.3 26 Este 46 Nordeste 0 931.9 -0.6 28
2019-04-11 17:00:00 15.5 27 Nordeste 45 Nordeste 0 931.8 -0.9 30
2019-04-11 16:00:00 15.3 28 Nordeste 45 Nordeste 0 932 -1.1 32
2019-04-11 15:00:00 14.6 27 Nordeste 44 Nordeste 0 932.5 -0.9 36
2019-04-11 14:00:00 14.1 24 Nordeste 41 Nordeste 0 932.7 -0.8 40
2019-04-11 13:00:00 12.9 23 Este 43 Este 0 933.1 -0.1 44
2019-04-11 12:00:00 11.9 24 Nordeste 39 Este 0 933.4 0.3 49
2019-04-11 11:00:00 9.8 18 Este 31 Este 0 933.5 0.8 59
2019-04-11 10:00:00 8.2 17 Este 27 Este 0 933.2 1 66
2019-04-11 09:00:00 5.1 5 Noroeste 21 Este 0 933.1 1 78
2019-04-11 08:00:00 3 9 Noroeste 15 Noroeste 0 932.7 0.6 85
2019-04-11 07:00:00 2.5 10 Nordeste 23 Este 0 932.2 0.2 89
2019-04-11 06:00:00 1.2 7 Norte 12 Norte 0 932.1 0.1 92
2019-04-11 05:00:00 1.5 9 Norte 15 Nordeste 0 932.1 0 93
2019-04-11 04:00:00 2 9 Norte 15 Norte 0 932 -0.1 93
2019-04-11 03:00:00 2.2 6 Norte 10 Norte 0 932 0.1 93
2019-04-11 02:00:00 2.9 3 Sudeste 13 Norte 0 932.1 0.5 92
2019-04-11 01:00:00 3.6 10 Norte 13 Norte 0 932.1 0.8 92
2019-04-11 00:00:00 4.9 0 Calma 15 Norte 0 931.9 1.4 86
2019-04-10 23:00:00 6 13 Norte 15 Norte 0 931.6 1.9 85
2019-04-10 22:00:00 6.6 3 Este 16 Norte 0 931.3 1.9 81
2019-04-10 21:00:00 6.4 12 Norte 15 Norte 0 930.5 1.6 80
2019-04-10 20:00:00 8.6 11 Norte 21 Norte 0 929.7 1 70
2019-04-10 19:00:00 9.7 13 Nordeste 41 Este 0 929.4 0.6 60
2019-04-10 18:00:00 9.7 32 Este 51 Este 0 928.9 -0.1 64
2019-04-10 17:00:00 11.3 19 Este 47 Este 0 928.7 -0.4 54
2019-04-10 16:00:00 13.1 27 Nordeste 44 Norte 0 928.8 -0.7 43
2019-04-10 15:00:00 12.4 31 Nordeste 46 Nordeste 0 929 -1.1 43
2019-04-10 14:00:00 12.8 32 Norte 49 Norte 0 929.1 -1.3 44
2019-04-10 13:00:00 11.2 26 Norte 42 Norte 0 929.5 -1 54
2019-04-10 12:00:00 9.5 25 Norte 38 Norte 0 930.1 -0.2 69
2019-04-10 11:00:00 8.1 25 Norte 35 Norte 0 930.4 0.4 80
2019-04-10 10:00:00 6 19 Norte 30 Norte 0 930.5 0.9 90
2019-04-10 09:00:00 4.6 19 Norte 28 Norte 0 930.3 0.7 96
2019-04-10 08:00:00 4.1 21 Norte 31 Norte 0 930 0.4 96
2019-04-10 07:00:00 4.5 14 Norte 21 Norte 0 929.6 0 96
2019-04-10 06:00:00 4.6 11 Norte 21 Norte 0 929.6 -0.1 95
2019-04-10 05:00:00 5 13 Norte 26 Norte 0 929.6 -0.3 93
2019-04-10 04:00:00 6 19 Norte 27 Norte 0 929.6 -0.3 92
2019-04-10 03:00:00 5.9 19 Norte 25 Norte 0 929.7 -0.1 92
2019-04-10 02:00:00 6 10 Norte 14 Norte 0 929.9 0 93
2019-04-10 01:00:00 5.7 6 Nordeste 24 Norte 0 929.9 0.2 92
2019-04-10 00:00:00 6 10 Norte 22 Norte 0.2 929.8 0.7 91
2019-04-09 23:00:00 6.3 10 Norte 15 Norte 0 929.9 1.4 86
2019-04-09 22:00:00 6.8 7 Norte 24 Noroeste 0 929.7 1.2 85
2019-04-09 21:00:00 7.8 10 Noroeste 28 Nordeste 0 929.1 1.6 76
2019-04-09 20:00:00 8.4 18 Nordeste 45 Nordeste 0 928.5 0.2 70
2019-04-09 19:00:00 8.3 21 Nordeste 58 Norte 0.6 928.5 -0.1 70
2019-04-09 18:00:00 10.7 33 Norte 48 Norte 0.2 927.5 -1.1 72
2019-04-09 17:00:00 10.4 24 Norte 60 Norte 0.4 928.3 -0.8 79
2019-04-09 16:00:00 8.1 26 Norte 66 Norte 1.2 928.6 -1 83
2019-04-09 15:00:00 12.8 45 Noroeste 60 Noroeste 0 928.6 -1.6 56
2019-04-09 14:00:00 11.1 35 Norte 56 Norte 0 929.1 -1.4 60
2019-04-09 13:00:00 10.3 29 Norte 49 Norte 0 929.6 -1.1 61
2019-04-09 12:00:00 9.6 30 Norte 46 Noroeste 0 930.2 -0.7 66
2019-04-09 11:00:00 8.8 31 Norte 44 Norte 0 930.5 -0.1 75
2019-04-09 10:00:00 7.2 24 Norte 33 Norte 0 930.7 0.3 85
2019-04-09 09:00:00 5.1 19 Norte 25 Norte 0 930.9 0.8 94
2019-04-09 08:00:00 4.4 13 Norte 21 Norte 0 930.6 0.6 95
2019-04-09 07:00:00 4.3 13 Norte 24 Norte 0 930.4 0.3 94
2019-04-09 06:00:00 5.9 21 Norte 29 Norte 0 930.1 0.3 91
2019-04-09 05:00:00 6 17 Norte 25 Norte 0 930 0 91
2019-04-09 04:00:00 5.3 12 Norte 16 Norte 0 930.1 0.2 90
2019-04-09 03:00:00 5.8 5 Norte 17 Norte 0 929.8 0.5 87
2019-04-09 02:00:00 6.5 14 Norte 30 Norte 0 930 0.9 84
2019-04-09 01:00:00 6.9 11 Norte 16 Norte 0 929.9 0.9 80
2019-04-09 00:00:00 7 9 Norte 14 Norte 0 929.3 0.9 81
2019-04-08 23:00:00 8.5 12 Norte 18 Norte 0 929.1 1 73
2019-04-08 22:00:00 9.2 12 Norte 21 Norte 0 929 0.8 76
2019-04-08 21:00:00 11.2 14 Noroeste 31 Noroeste 0 928.4 0.2 69
2019-04-08 20:00:00 13.7 25 Noroeste 39 Norte 0 928.1 -0.3 60
2019-04-08 19:00:00 13.9 23 Noroeste 43 Noroeste 0 928.2 -0.5 71
2019-04-08 18:00:00 13.6 29 Noroeste 43 Noroeste 0 928.2 -0.9 71
2019-04-08 17:00:00 14 20 Norte 44 Norte 0.2 928.4 -1 68
2019-04-08 16:00:00 15.3 32 Norte 46 Norte 0 928.7 -1.5 56
2019-04-08 15:00:00 14.1 24 Norte 46 Norte 0 929.1 -1.3 65
2019-04-08 14:00:00 14.8 31 Norte 42 Norte 0 929.4 -0.8 63
2019-04-08 13:00:00 12.4 27 Norte 42 Norte 0 930.2 0.1 77
2019-04-08 12:00:00 11.9 28 Norte 40 Norte 0 930.4 0.4 79
2019-04-08 11:00:00 10.9 32 Norte 45 Norte 0 930.2 0.7 82
2019-04-08 10:00:00 10.1 31 Norte 43 Noroeste 0.2 930.1 0.7 90
2019-04-08 09:00:00 9.4 24 Norte 32 Norte 0 930 0.6 95
2019-04-08 08:00:00 8.9 15 Norte 31 Norte 3 929.5 0.2 96
2019-04-08 07:00:00 8.8 19 Norte 28 Norte 1.2 929.4 0 96
2019-04-08 06:00:00 8.8 17 Norte 29 Norte 0 929.4 -0.4 94
2019-04-08 05:00:00 9 18 Norte 36 Norte 0.2 929.3 -1 93
2019-04-08 04:00:00 8.8 17 Noroeste 31 Noroeste 0 929.4 -1.3 96
2019-04-08 03:00:00 7.6 6 Oeste 11 Oeste 0.2 929.8 -1.1 95
2019-04-08 02:00:00 7.5 4 Sudoeste 9 Sudoeste 0 930.3 -0.5 93
2019-04-08 01:00:00 7.6 4 Sur 6 Sur 0 930.7 -0.2 91
2019-04-08 00:00:00 7.7 3 Norte 15 Noroeste 0 930.9 0.7 90
2019-04-07 23:00:00 8.2 13 Noroeste 23 Noroeste 0 930.8 1 83
2019-04-07 22:00:00 8.9 17 Norte 28 Norte 0 930.9 1.8 76
2019-04-07 21:00:00 9.8 21 Norte 35 Norte 0 930.2 1.6 67
2019-04-07 20:00:00 10.5 29 Norte 44 Norte 0 929.8 1.4 63
2019-04-07 19:00:00 11.4 32 Norte 50 Norte 0 929.1 0.9 54
2019-04-07 18:00:00 11.7 32 Norte 53 Norte 0 928.6 0.3 53
2019-04-07 17:00:00 11.5 35 Norte 51 Norte 0 928.4 0.2 54
2019-04-07 16:00:00 12.9 28 Norte 51 Norte 0 928.2 0 42
2019-04-07 15:00:00 12.7 32 Norte 53 Nordeste 0 928.3 0.4 44
2019-04-07 14:00:00 11.1 33 Norte 48 Nordeste 0 928.2 0.9 45
2019-04-07 13:00:00 9.6 31 Nordeste 49 Norte 0 928.2 1.4 54
2019-04-07 12:00:00 9 31 Norte 52 Norte 0 927.9 1.8 64
2019-04-07 11:00:00 7.7 33 Norte 50 Norte 0 927.3 2.2 72
2019-04-07 10:00:00 6.1 31 Nordeste 47 Norte 0 926.8 2.7 81
2019-04-07 09:00:00 4.4 24 Norte 35 Norte 0 926.1 2.3 91
2019-04-07 08:00:00 4 21 Norte 30 Norte 0 925.1 1.5 93
2019-04-07 07:00:00 4.1 17 Norte 28 Norte 0.2 924.1 0.7 95
2019-04-07 06:00:00 4.2 19 Norte 30 Norte 0.2 923.8 0.5 94
2019-04-07 05:00:00 4.3 24 Norte 36 Noroeste 0 923.6 0.3 91
2019-04-07 04:00:00 4.4 22 Norte 39 Noroeste 0 923.4 0.1 91
2019-04-07 03:00:00 4.1 24 Noroeste 39 Norte 0 923.3 0.1 89
2019-04-07 02:00:00 4.2 31 Noroeste 46 Noroeste 0 923.3 0.3 87
2019-04-07 01:00:00 4.7 30 Norte 44 Noroeste 0 923.3 0.9 83
2019-04-07 00:00:00 4.9 27 Noroeste 40 Noroeste 0 923.2 1.5 84
2019-04-06 23:00:00 5.4 26 Noroeste 40 Norte 0 923 1.9 82
2019-04-06 22:00:00 5.3 27 Noroeste 41 Noroeste 0 922.4 2 81
2019-04-06 21:00:00 5.6 27 Noroeste 43 Noroeste 0 921.7 1.8 78
2019-04-06 20:00:00 6.9 33 Noroeste 54 Norte 0 921.1 1.1 75
2019-04-06 19:00:00 8.8 37 Noroeste 57 Norte 0 920.4 0.3 67
2019-04-06 18:00:00 9.1 38 Norte 61 Norte 0 919.9 -0.7 61
2019-04-06 17:00:00 9.2 43 Norte 62 Noroeste 0 920 -0.9 58
2019-04-06 16:00:00 9.9 44 Norte 59 Noroeste 0 920.1 -1.1 62
2019-04-06 15:00:00 8.5 39 Noroeste 56 Noroeste 0 920.6 -1.1 75
2019-04-06 14:00:00 6.8 34 Norte 67 Norte 0.6 920.9 -0.7 84
2019-04-06 13:00:00 5.4 22 Noroeste 50 Noroeste 0.4 921.2 -0.2 88
2019-04-06 12:00:00 4.9 33 Noroeste 54 Noroeste 0.6 921.7 0.6 88
2019-04-06 11:00:00 5.9 29 Norte 44 Norte 0 921.6 1 83
2019-04-06 10:00:00 5.4 28 Noroeste 46 Norte 0 921.4 1.5 83
2019-04-06 09:00:00 4.6 30 Norte 42 Norte 0 921.1 1.6 87
2019-04-06 08:00:00 3.6 27 Noroeste 40 Norte 0 920.6 1.6 89
2019-04-06 07:00:00 3.4 23 Norte 39 Norte 0 919.9 0.5 92
2019-04-06 06:00:00 3.2 24 Norte 41 Norte 0 919.5 0 91
2019-04-06 05:00:00 3.8 30 Norte 48 Noroeste 0.2 919 -0.6 92
2019-04-06 04:00:00 4.3 32 Noroeste 44 Norte 0 919.4 0.1 88
2019-04-06 03:00:00 4.3 24 Norte 35 Norte 0 919.5 0 89
2019-04-06 02:00:00 4.1 17 Norte 39 Noroeste 0 919.6 0.4 88
2019-04-06 01:00:00 4.2 30 Noroeste 48 Norte 0 919.3 0.6 85
2019-04-06 00:00:00 3.2 9 Norte 12 Norte 0 919.5 1.7 87
2019-04-05 23:00:00 2.4 3 Nordeste 13 Norte 0 919.2 2.3 85
2019-04-05 22:00:00 3 10 Norte 32 Norte 0 918.7 2.5 84
2019-04-05 21:00:00 4.7 23 Norte 42 Norte 0 917.8 2.1 78
2019-04-05 20:00:00 6.7 26 Norte 48 Norte 0 916.9 0.5 74
2019-04-05 19:00:00 6.2 19 Noroeste 52 Norte 0.4 916.2 -1.4 84
2019-04-05 18:00:00 7.1 18 Noroeste 29 Noroeste 0 915.7 -1.1 82
2019-04-05 17:00:00 5.6 16 Noroeste 36 Norte 0.8 916.4 -0.3 89
2019-04-05 16:00:00 5.1 30 Norte 47 Norte 1 917.6 0.1 90
2019-04-05 15:00:00 8.7 29 Noroeste 44 Noroeste 0 916.8 -1.6 67
2019-04-05 14:00:00 8.6 22 Oeste 41 Noroeste 0 916.7 -1.3 71
2019-04-05 13:00:00 7.5 18 Oeste 39 Oeste 0 917.5 -0.5 80
2019-04-05 12:00:00 6.9 20 Noroeste 44 Noroeste 0.6 918.4 0.1 83
2019-04-05 11:00:00 8.7 27 Noroeste 42 Noroeste 0 918 -0.4 66
2019-04-05 10:00:00 8.1 20 Noroeste 39 Oeste 0 918 -0.3 69
2019-04-05 09:00:00 7.1 14 Oeste 27 Oeste 0 918.3 0.3 70
2019-04-05 08:00:00 6.7 17 Oeste 28 Oeste 0 918.4 0.4 71
2019-04-05 07:00:00 6.8 17 Oeste 29 Oeste 0 918.3 0.1 68
2019-04-05 06:00:00 6.9 19 Oeste 32 Oeste 0 918 -0.4 66
2019-04-05 05:00:00 7.2 22 Oeste 37 Noroeste 0 918 -0.2 61
2019-04-05 04:00:00 7.8 21 Noroeste 36 Oeste 0 918.2 0.2 54
2019-04-05 03:00:00 8.2 19 Noroeste 30 Oeste 0 918.4 0.3 52
2019-04-05 02:00:00 7.7 6 Noroeste 18 Oeste 0 918.2 -0.4 57
2019-04-05 01:00:00 7 9 Oeste 18 Oeste 0 918 -0.5 70
2019-04-05 00:00:00 7.8 8 Sudoeste 15 Sudoeste 0 918.1 -0.1 72
2019-04-04 23:00:00 8.1 7 Sudoeste 13 Sudoeste 0 918.6 0.5 41
2019-04-04 22:00:00 8.1 5 Sur 12 Sur 0 918.5 0.1 45
2019-04-04 21:00:00 10.1 6 Sur 13 Norte 0 918.2 -0.5 34
2019-04-04 20:00:00 12.9 11 Norte 28 Norte 0 918.1 -1 27
2019-04-04 19:00:00 13.9 15 Norte 29 Norte 0 918.4 -1.4 24
2019-04-04 18:00:00 14 16 Norte 39 Norte 0 918.7 -1.9 24
2019-04-04 17:00:00 13.9 12 Noroeste 41 Noroeste 0 919.1 -2 24
2019-04-04 16:00:00 13.5 13 Noroeste 40 Norte 0 919.8 -1.8 25
2019-04-04 15:00:00 12.4 13 Norte 30 Norte 0 920.6 -1.4 28
2019-04-04 14:00:00 11.3 12 Norte 23 Nordeste 0 921.1 -0.9 28
2019-04-04 13:00:00 10.5 9 Norte 25 Norte 0 921.6 -0.3 30
2019-04-04 12:00:00 9.8 7 Nordeste 17 Nordeste 0 922 0.3 30
2019-04-04 11:00:00 7.9 4 Norte 12 Nordeste 0 922 0.9 41
2019-04-04 10:00:00 5.5 8 Este 14 Este 0 921.9 1.3 50
2019-04-04 09:00:00 3.9 7 Este 11 Este 0 921.7 1.4 66
2019-04-04 08:00:00 0.6 6 Este 9 Este 0 921.1 1.1 78
2019-04-04 07:00:00 1.9 6 Este 9 Este 0 920.6 0.7 74
2019-04-04 06:00:00 2.1 3 Nordeste 5 Nordeste 0 920.3 0.1 79
2019-04-04 05:00:00 1.6 3 Sudeste 10 Nordeste 0 920 -0.5 75
2019-04-04 04:00:00 3.7 6 Este 13 Nordeste 0 919.9 -0.7 64
2019-04-04 03:00:00 4.2 8 Nordeste 13 Este 0 920.2 -0.2 63
2019-04-04 02:00:00 5.9 6 Este 15 Nordeste 0 920.5 0 58
2019-04-04 01:00:00 8.2 10 Este 19 Nordeste 0 920.6 0.5 44
2019-04-04 00:00:00 8.9 15 Nordeste 23 Nordeste 0 920.4 1.2 39
2019-04-03 23:00:00 9.9 14 Nordeste 21 Nordeste 0 920.5 1.8 39
2019-04-03 22:00:00 10.3 13 Nordeste 30 Este 0 920.1 1.9 42
2019-04-03 21:00:00 11.3 20 Nordeste 38 Nordeste 0 919.2 0.7 42
2019-04-03 20:00:00 13.6 23 Nordeste 48 Norte 0 918.7 -0.2 42
2019-04-03 19:00:00 17.2 38 Norte 57 Norte 0 918.2 -1.5 28
2019-04-03 18:00:00 18 37 Norte 58 Norte 0 918.5 -2.3 27
2019-04-03 17:00:00 18.4 36 Norte -- -- 0 918.9 -2.8 24
2019-04-03 16:00:00 17.9 41 Norte 63 Noroeste 0 919.7 -2.6 24
2019-04-03 15:00:00 17.9 39 Noroeste 60 Norte 0 920.8 -2.7 30
2019-04-03 14:00:00 16.7 40 Norte 59 Norte 0 921.7 -2.5 38
2019-04-03 13:00:00 16 33 Norte -- -- 0 922.3 -2.6 44
2019-04-03 12:00:00 15.3 31 Norte 41 Noroeste 0 923.5 -2 46
2019-04-03 11:00:00 12.4 14 Noroeste 23 Noroeste 0 924.2 -1.5 67
2019-04-03 10:00:00 9.5 13 Norte 21 Norte 0 924.9 -1 77
2019-04-03 09:00:00 7.2 6 Norte 11 Norte 0 925.5 -0.7 87
2019-04-03 08:00:00 5.6 8 Norte 10 Norte 0 925.7 -1 94
2019-04-03 07:00:00 4.1 5 Norte 6 Norte 0 925.9 -1.6 93
2019-04-03 06:00:00 4.3 4 Este 5 Este 0 926.2 -2 93
2019-04-03 05:00:00 4.1 3 Este 9 Este 0 926.7 -2.2 93
2019-04-03 04:00:00 4.6 3 Este 10 Este 0 927.5 -1.9 93
2019-04-03 03:00:00 5 8 Este 12 Este 0 928.2 -1.8 93
2019-04-03 02:00:00 5.3 6 Este 8 Este 0 928.9 -1 90
2019-04-03 01:00:00 6.4 5 Este 8 Este 0 929.4 -0.6 88
2019-04-03 00:00:00 7.7 6 Noroeste 8 Este 0 930 0.2 86
2019-04-02 23:00:00 8.6 8 Este 10 Este 0 929.9 0.4 83
2019-04-02 22:00:00 9.2 8 Este 13 Este 0 930 0.8 80
2019-04-02 21:00:00 10.5 11 Este 38 Este 0 929.8 0.6 71
2019-04-02 20:00:00 14.3 17 Norte 39 Norte 0 929.5 0 53
2019-04-02 19:00:00 16.2 19 Norte 31 Norte 0 929.2 -0.9 51
2019-04-02 18:00:00 16.1 17 Norte 39 Norte 0 929.2 -1.5 46
2019-04-02 17:00:00 16.5 24 Noroeste 34 Noroeste 0 929.5 -1.8 54
2019-04-02 16:00:00 17 20 Norte 33 Noroeste 0 930.1 -2.1 55
2019-04-02 15:00:00 14.1 19 Norte 29 Norte 0 930.7 -1.8 69
2019-04-02 14:00:00 13.9 18 Norte 28 Norte 0 931.3 -1.2 67
2019-04-02 13:00:00 14.3 13 Noroeste 23 Noroeste 0 932.2 -0.1 71
2019-04-02 12:00:00 12.2 14 Norte 25 Norte 0 932.5 0.4 80
2019-04-02 11:00:00 10.7 17 Norte 23 Norte 0 932.5 0.8 88
2019-04-02 10:00:00 8.5 0 Calma 5 Este 0 932.3 1 96
2019-04-02 09:00:00 6.7 4 Sudeste 9 Este 0 932.1 0.8 97
2019-04-02 08:00:00 6 5 Este 10 Este 0 931.7 -0.2 97
2019-04-02 07:00:00 6.3 8 Este 10 Este 0 931.3 -0.5 97
2019-04-02 06:00:00 6.8 3 Este 6 Este 0 931.3 -0.7 97
2019-04-02 05:00:00 6.9 6 Este 11 Este 0 931.9 -0.2 96
2019-04-02 04:00:00 7.2 4 Este 5 Sudeste 0 931.8 -0.3 95
2019-04-02 03:00:00 8.1 3 Noroeste 8 Oeste 0 932 -0.1 93
2019-04-02 02:00:00 9.1 3 Sudoeste 5 Oeste 0 932.1 0 94
2019-04-02 01:00:00 9.5 5 Sudoeste 17 Oeste 0 932.1 0.6 93
2019-04-02 00:00:00 9.6 11 Oeste 18 Sudoeste 0 932.1 1.4 94
2019-04-01 23:00:00 9.7 9 Sudoeste 18 Sudoeste 0 932.1 2.2 93
2019-04-01 22:00:00 10.1 8 Sudoeste 13 Sur 0 931.5 1.7 91
2019-04-01 21:00:00 10.7 5 Sur 11 Sudeste 0 930.7 0.8 84
2019-04-01 20:00:00 12.4 5 Sur 7 Sudeste 0 929.9 0.1 72
2019-04-01 19:00:00 11.9 4 Noroeste 16 Norte 0 929.8 0.2 76
2019-04-01 18:00:00 11.6 12 Norte 31 Noroeste 0 929.9 0 79
2019-04-01 17:00:00 13.6 19 Noroeste 28 Oeste 0 929.8 -0.4 75
2019-04-01 16:00:00 14.3 19 Oeste 27 Oeste 0 929.6 -1.1 68
2019-04-01 15:00:00 13.6 16 Sudoeste 26 Sur 0 929.9 -0.9 71
2019-04-01 14:00:00 14 9 Sudoeste 19 Sudoeste 0 930.2 -0.3 69
2019-04-01 13:00:00 12.8 10 Sudoeste 20 Sudoeste 0 930.7 0.7 74
2019-04-01 12:00:00 12.2 10 Sudoeste 19 Sudoeste 0 930.8 1.2 79
2019-04-01 11:00:00 10.2 11 Sudoeste 19 Sudoeste 0 930.5 1.4 89
2019-04-01 10:00:00 9.3 10 Sudoeste 18 Sudoeste 0 930 1.2 94
2019-04-01 09:00:00 8.6 6 Sudoeste 13 Sur 0 929.6 0.9 95
2019-04-01 08:00:00 8.3 6 Sur 14 Sur 0 929.1 0.3 96
2019-04-01 07:00:00 8.3 7 Sur 15 Sur 0.2 928.8 -0.2 95
2019-04-01 06:00:00 8.2 10 Sur 17 Sudoeste 0 928.7 -0.4 95
2019-04-01 05:00:00 8.1 6 Sur 13 Sur 0.4 928.8 -0.5 96
2019-04-01 04:00:00 8.1 6 Sur 13 Sur 0.2 929 -0.4 96
2019-04-01 03:00:00 8.2 6 Sur 15 Sur 0 929.1 -0.4 96
2019-04-01 02:00:00 8.2 7 Sur 17 Sur 0.2 929.3 0 95
2019-04-01 01:00:00 8.3 9 Sur 17 Sur 0 929.4 0.4 93
2019-04-01 00:00:00 8.5 10 Sur 21 Sur 0 929.5 1.1 91
2019-03-31 23:00:00 8.6 11 Sur 23 Sur 0 929.3 1.4 91
2019-03-31 22:00:00 8.5 13 Sur 22 Sur 0.2 929 1 92
2019-03-31 21:00:00 8.8 10 Sur 21 Sur 0 928.4 0.2 89
2019-03-31 20:00:00 8.8 14 Sur 22 Sur 0 927.9 -0.4 92
2019-03-31 19:00:00 8.7 12 Sur 22 Sur 0 928 -0.5 91
2019-03-31 18:00:00 8.7 14 Sur 22 Sur 0.4 928.2 -0.7 91
2019-03-31 17:00:00 8.6 13 Sur 23 Sur 0.2 928.3 -1.2 92
2019-03-31 16:00:00 8.8 19 Sur 30 Sur 0.2 928.5 -1.3 89
2019-03-31 15:00:00 9.3 22 Sur 30 Sur 0.2 928.9 -1.3 87
2019-03-31 14:00:00 9.1 17 Sur 33 Sur 0.2 929.5 -0.9 87
2019-03-31 13:00:00 8.9 18 Sur 33 Sur 0.2 929.8 -0.7 87
2019-03-31 12:00:00 7.8 13 Sur 22 Sudoeste 1.2 930.2 -0.4 91
2019-03-31 11:00:00 6.7 15 Sur 28 Sur 1.6 930.4 0 93
2019-03-31 10:00:00 6.3 17 Sur 27 Sur 2.4 930.5 0.2 94
2019-03-31 09:00:00 6.2 17 Sur 33 Sur 1.2 930.6 0.1 93
2019-03-31 08:00:00 6.3 17 Sur 35 Sur 0.8 930.4 -0.5 91
2019-03-31 07:00:00 6.7 20 Sur 31 Sur 0.2 930.3 -1.3 90
2019-03-31 06:00:00 7.2 19 Sur 36 Sur 0 930.5 -1.6 84
2019-03-31 05:00:00 6.9 22 Sur 35 Sur 0 930.9 -1.7 82
2019-03-31 03:00:00 6.8 19 Sur 31 Sur 0 932.1 -0.8 77
2019-03-31 01:00:00 7.2 20 Sur 32 Sur 0 932.6 -0.4 73
2019-03-31 00:00:00 7.5 12 Sur 38 Sur 0 933.2 0 69
2019-03-30 23:00:00 8.2 20 Sur 36 Sur 0 932.9 0.1 64
2019-03-30 22:00:00 9.1 19 Sur 38 Sur 0 933 0.6 66
2019-03-30 21:00:00 10.3 21 Sur 37 Sur 0 933.2 1.3 62
2019-03-30 20:00:00 11.6 25 Sur 38 Sur 0 932.8 1.2 60
2019-03-30 19:00:00 13.9 25 Sur 44 Sur 0 932.4 0.1 50
2019-03-30 18:00:00 15.8 22 Sur 41 Sur 0 931.9 -1.2 41
2019-03-30 17:00:00 17.2 21 Sur 41 Sur 0 931.6 -2.3 37
2019-03-30 16:00:00 17.1 19 Sudoeste 37 Sudoeste 0 932.3 -2.7 37
2019-03-30 15:00:00 16.5 20 Sudoeste 37 Sudoeste 0 933.1 -2.9 37
2019-03-30 14:00:00 15.3 20 Sur 38 Sudoeste 0 933.9 -2.7 40
2019-03-30 13:00:00 14 19 Sur 39 Sudoeste 0 935 -1.9 45
2019-03-30 12:00:00 12.5 21 Sudoeste 45 Sudoeste 0 936 -1 49
2019-03-30 11:00:00 10.8 22 Sudoeste 44 Sudoeste 0 936.6 -0.4 57
2019-03-30 10:00:00 9.3 22 Sur 39 Sur 0 936.9 0 64
2019-03-30 09:00:00 7.2 16 Sur 31 Sur 0 937 0.3 79
2019-03-30 08:00:00 5.8 15 Sur 27 Sur 0 937 0 86
2019-03-30 07:00:00 4.9 7 Sur 22 Sur 0 936.9 -0.4 88
2019-03-30 06:00:00 5.2 15 Sur 25 Sur 0 936.7 -0.9 85
2019-03-30 05:00:00 5.3 12 Sur 27 Sudoeste 0 937 -1.4 85
2019-03-30 04:00:00 5.5 13 Sur 31 Sur 0 937.3 -1.4 84
2019-03-30 03:00:00 5.6 16 Sur 30 Sur 0 937.6 -1.3 76
2019-03-30 02:00:00 5.3 16 Sur 30 Sur 0 938.4 -0.4 73
2019-03-30 01:00:00 5.6 14 Sur 31 Sur 0 938.7 0.1 64
2019-03-30 00:00:00 6.8 17 Sur 37 Sudoeste 0 938.9 0.7 58
2019-03-29 23:00:00 7.7 21 Sur 42 Sur 0 938.8 1.3 55
2019-03-29 22:00:00 8.7 21 Sur 42 Sur 0 938.6 1.5 52
2019-03-29 21:00:00 9.7 21 Sur 41 Sur 0 938.2 1.2 54
2019-03-29 20:00:00 11.4 21 Sur 40 Sudoeste 0 937.5 0.4 51
2019-03-29 19:00:00 13.2 17 Sudoeste 37 Sudoeste 0 937.1 -0.2 41
2019-03-29 18:00:00 14.3 22 Sudoeste 40 Sudoeste 0 937 -0.8 38
2019-03-29 17:00:00 15.4 25 Sudoeste 40 Sudoeste 0 937.1 -1.4 36
2019-03-29 16:00:00 14.8 24 Sudoeste 44 Sudoeste 0 937.3 -1.8 38
2019-03-29 15:00:00 14.3 24 Sudoeste 48 Oeste 0 937.8 -2 38
2019-03-29 14:00:00 14.5 25 Sudoeste 48 Sudoeste 0 938.5 -2 35
2019-03-29 13:00:00 14.4 25 Sudoeste 48 Sudoeste 0 939.1 -1.8 32
2019-03-29 12:00:00 13 22 Sudoeste 44 Sur 0 939.8 -1 38
2019-03-29 11:00:00 11.5 21 Sudoeste 38 Sudoeste 0 940.5 -0.2 39
2019-03-29 10:00:00 10.2 18 Sudoeste 33 Sudoeste 0 940.9 0.6 43
2019-03-29 09:00:00 8.1 16 Sur 27 Sur 0 940.8 0.6 59
2019-03-29 08:00:00 5.9 14 Sur 23 Sur 0 940.7 0.5 66
2019-03-29 07:00:00 3.4 17 Sur 23 Sur 0 940.3 0 71
2019-03-29 06:00:00 2.9 10 Sur 22 Sur 0 940.2 -0.2 74
2019-03-29 05:00:00 2.9 11 Sudeste 19 Sur 0 940.2 -0.5 67
2019-03-29 04:00:00 4.2 14 Sur 26 Sur 0 940.3 -0.6 64
2019-03-29 03:00:00 4.4 15 Sur 21 Sur 0 940.4 -0.6 59
2019-03-29 02:00:00 4.8 14 Sudeste 20 Sudeste 0 940.7 0 54
2019-03-29 01:00:00 5.7 11 Sur 22 Sur 0 940.9 0.4 47
2019-03-29 00:00:00 7.1 9 Sur 22 Sur 0 941 0.9 43
2019-03-28 23:00:00 8.1 9 Sur 19 Sudoeste 0 940.7 1.5 40
2019-03-28 22:00:00 9 10 Sudoeste 21 Sudoeste 0 940.5 1.6 34
2019-03-28 21:00:00 10.6 11 Sudoeste 20 Sudoeste 0 940.1 1.4 30
2019-03-28 20:00:00 13.1 10 Sudoeste 26 Sudoeste 0 939.2 0.5 26
2019-03-28 19:00:00 15.4 14 Sudoeste 32 Sudoeste 0 938.9 -0.1 21
2019-03-28 18:00:00 16.7 13 Sur 33 Sur 0 938.7 -1 20
2019-03-28 17:00:00 17.1 18 Sur 45 Sur 0 938.7 -1.7 19
2019-03-28 16:00:00 17.3 14 Sur 37 Sur 0 939 -2.1 18
2019-03-28 15:00:00 17 16 Sur 37 Sudoeste 0 939.7 -1.9 18
2019-03-28 14:00:00 16.4 14 Sudoeste 38 Sudoeste 0 940.4 -1.7 19
2019-03-28 13:00:00 15.5 15 Sudoeste 30 Sudoeste 0 941.1 -1.1 19
2019-03-28 12:00:00 14.2 17 Sudoeste 32 Sudoeste 0 941.6 -0.5 19
2019-03-28 11:00:00 13.1 14 Sudoeste 25 Sudoeste 0 942.1 0.1 19
2019-03-28 10:00:00 11.3 10 Sur 18 Sur 0 942.2 0.3 29
2019-03-28 09:00:00 7.4 9 Sudeste 19 Sudeste 0 942.1 0.5 46
2019-03-28 08:00:00 2.9 10 Este 20 Este 0 942 0.7 59
2019-03-28 07:00:00 -0.7 14 Este 20 Este 0 941.9 0.8 69
2019-03-28 06:00:00 -0.4 12 Este 17 Este 0 941.6 0.6 70
2019-03-28 05:00:00 0.6 8 Este 13 Este 0 941.3 0.2 65
2019-03-28 04:00:00 1.9 8 Sudeste 14 Sudeste 0 941.1 0.1 60
2019-03-28 03:00:00 3.4 11 Sudeste 20 Sur 0 941 0.2 54
2019-03-28 02:00:00 5.9 13 Sur 23 Sudoeste 0 941.1 0.6 47
2019-03-28 01:00:00 5.4 12 Sur 18 Sur 0 941 1.5 45
2019-03-28 00:00:00 6.2 10 Sur 19 Sudoeste 0 940.8 1.9 39
2019-03-27 23:00:00 8 12 Sur 25 Sudoeste 0 940.5 2.3 33
2019-03-27 22:00:00 9.3 14 Sur 24 Sudoeste 0 939.5 2 27
2019-03-27 21:00:00 10.6 9 Sur 22 Sur 0 938.9 1.8 25
2019-03-27 20:00:00 11.9 6 Sudoeste 22 Sudoeste 0 938.2 1.2 20
2019-03-27 19:00:00 14.6 11 Sudoeste 26 Sudoeste 0 937.5 0.2 17
2019-03-27 18:00:00 16 14 Sudoeste 27 Sudoeste 0 937.1 -0.5 17
2019-03-27 17:00:00 16.8 12 Sur 31 Sur 0 937 -1.2 18
2019-03-27 16:00:00 16.5 11 Sudoeste 28 Sudoeste 0 937.3 -1.4 19
2019-03-27 15:00:00 16.2 17 Sur 32 Sur 0 937.6 -1.5 19
2019-03-27 14:00:00 15.5 14 Sur 35 Sur 0 938.2 -1 20
2019-03-27 13:00:00 14.6 18 Sur 35 Sur 0 938.7 -0.4 19
2019-03-27 12:00:00 13.1 14 Sur 29 Sudoeste 0 939.1 0.2 25
2019-03-27 11:00:00 12.3 15 Sudoeste 30 Sudoeste 0 939.2 0.4 33
2019-03-27 10:00:00 10.7 15 Sudoeste 30 Sur 0 939.1 0.9 38
2019-03-27 09:00:00 8.4 13 Sur 22 Sur 0 938.9 1 48
2019-03-27 08:00:00 4.6 10 Sudeste 17 Sudeste 0 938.8 1.2 67
2019-03-27 07:00:00 1.7 9 Este 16 Sudeste 0 938.2 0.6 77
2019-03-27 06:00:00 3.1 9 Sudeste 14 Sudeste 0 937.9 0.1 83
2019-03-27 05:00:00 3.2 9 Sur 16 Sur 0 937.6 -0.3 81
2019-03-27 04:00:00 4.2 9 Sudeste 13 Sudeste 0 937.6 -0.1 77
2019-03-27 03:00:00 5.5 7 Sur 45 Sudoeste 0 937.8 0.3 74
2019-03-27 02:00:00 6.4 21 Sur 42 Sudoeste 0 937.9 1.3 71
2019-03-27 01:00:00 6.3 21 Sur 45 Sur 0 937.7 1.7 72
2019-03-27 00:00:00 6.3 22 Sur 46 Sur 0 937.5 2.4 74
2019-03-26 23:00:00 7.7 26 Sur 45 Sur 0 936.6 2.5 64
2019-03-26 22:00:00 9.4 25 Sur 39 Sur 0 936 2.4 46
2019-03-26 21:00:00 11.1 21 Sur 44 Sur 0 935.1 1.9 37
2019-03-26 20:00:00 12.6 21 Sur 37 Sur 0 934.1 0.9 33
2019-03-26 19:00:00 14.6 24 Sur 42 Sudoeste 0 933.6 0.5 25
2019-03-26 18:00:00 16.4 22 Sur 43 Sur 0 933.2 -0.1 28
2019-03-26 17:00:00 17.2 28 Sur 47 Sudoeste 0 933.2 -0.3 24
2019-03-26 16:00:00 17.8 22 Sur 44 Sur 0 933.1 -1 29
2019-03-26 15:00:00 18 26 Sur 48 Sur 0 933.3 -1.2 30
2019-03-26 14:00:00 17.6 23 Sur 42 Sur 0 933.5 -1.5 30
2019-03-26 13:00:00 16.5 25 Sudoeste 45 Sur 0 934.1 -0.8 29
2019-03-26 12:00:00 15.1 26 Sur 51 Sur 0 934.5 0 33
2019-03-26 11:00:00 14.2 30 Sur 51 Sur 0 935 0.7 37
2019-03-26 10:00:00 12.8 25 Sur 40 Sur 0 934.9 1.2 38
2019-03-26 09:00:00 11.2 17 Sur 28 Sur 0 934.5 1.2 40
2019-03-26 08:00:00 7 12 Sudeste 26 Sudeste 0 934.3 1.2 51
2019-03-26 07:00:00 5.2 14 Sudeste 24 Sudeste 0 933.7 0.4 55
2019-03-26 06:00:00 4.9 12 Sudeste 19 Sudeste 0 933.3 -0.1 57
2019-03-26 05:00:00 4.3 10 Sudeste 21 Sudeste 0 933.1 -0.4 60
2019-03-26 04:00:00 5.1 12 Sudeste 17 Sudeste 0 933.3 -0.2 56
2019-03-26 03:00:00 5.8 14 Sudeste 20 Sudeste 0 933.4 -0.4 53
2019-03-26 02:00:00 7.9 14 Sudeste 19 Sudeste 0 933.5 0.1 48
2019-03-26 01:00:00 8.1 9 Sur 13 Sudeste 0 933.5 0.4 46
2019-03-26 00:00:00 9.6 9 Sudeste 20 Sur 0 933.8 0.9 40
2019-03-25 23:00:00 11.1 10 Sur 19 Sur 0 933.4 1.1 35
2019-03-25 22:00:00 9.2 8 Este 14 Este 0 933.1 1 34
2019-03-25 21:00:00 11.7 5 Nordeste 9 Nordeste 0 932.9 0.8 29
2019-03-25 20:00:00 16.3 6 Oeste 13 Oeste 0 932.3 -0.1 22
2019-03-25 19:00:00 18.8 10 Oeste 14 Oeste 0 932.1 -0.9 19
2019-03-25 18:00:00 20.6 9 Sudoeste 16 Oeste 0 932.1 -1.6 17
2019-03-25 17:00:00 20.5 10 Sur 24 Sur 0 932.4 -2.1 16
2019-03-25 16:00:00 20.8 8 Sudoeste 25 Sur 0 933 -2.5 16
2019-03-25 15:00:00 20.6 12 Sur 35 Sur 0 933.7 -2.5 17
2019-03-25 14:00:00 20.5 11 Sur 33 Sur 0 934.5 -2.2 18
2019-03-25 13:00:00 19.8 9 Sudoeste 26 Sudeste 0 935.5 -1.6 20
2019-03-25 12:00:00 18.7 5 Este 22 Sur 0 936.2 -0.7 23
2019-03-25 11:00:00 17.8 5 Sudoeste 16 Sudeste 0 936.7 -0.4 26
2019-03-25 10:00:00 14.6 11 Sudeste 23 Este 0 937.1 0.1 31
2019-03-25 09:00:00 10.1 17 Este 23 Este 0 936.9 0.1 39
2019-03-25 08:00:00 5.2 6 Sudeste 15 Sudeste 0 937.1 0.3 51
2019-03-25 07:00:00 2 6 Sudeste 15 Este 0 937 -0.1 59
2019-03-25 06:00:00 3.6 13 Sudeste 17 Este 0 936.8 -0.5 54
2019-03-25 05:00:00 2.9 13 Este 18 Este 0 936.8 -0.8 57
2019-03-25 04:00:00 4.1 10 Este 18 Este 0 937.1 -0.8 55
2019-03-25 03:00:00 4.3 12 Este 18 Este 0 937.3 -0.5 54
2019-03-25 02:00:00 4.3 10 Este 15 Este 0 937.6 -0.5 54
2019-03-25 01:00:00 5.4 9 Este 17 Este 0 937.9 0 49
2019-03-25 00:00:00 7.3 5 Este 13 Sur 0 937.8 0.4 43
2019-03-24 23:00:00 8.9 8 Sudeste 16 Sur 0 938.1 1.1 39
2019-03-24 22:00:00 11.7 9 Sur 20 Sur 0 937.9 1.1 32
2019-03-24 21:00:00 12.2 12 Sur 22 Sur 0 937.4 0.9 32
2019-03-24 20:00:00 14.7 14 Sur 31 Sur 0 937 0.6 26
2019-03-24 19:00:00 16.6 16 Sur 35 Sur 0 936.8 0.3 24
2019-03-24 18:00:00 17.7 20 Sur 43 Sudoeste 0 936.5 -0.4 23
2019-03-24 17:00:00 19.1 20 Sur 39 Sudoeste 0 936.4 -1 22
2019-03-24 16:00:00 19.9 18 Sur 39 Sudoeste 0 936.5 -1.9 25
2019-03-24 15:00:00 19.5 20 Sur 42 Sudoeste 0 936.9 -2 26
2019-03-24 14:00:00 19 22 Sudoeste 42 Sudoeste 0 937.4 -2 27
2019-03-24 13:00:00 17.6 20 Sur 46 Sudoeste 0 938.4 -1.1 29
2019-03-24 12:00:00 16.9 20 Sudoeste 36 Sur 0 938.9 -0.3 31
2019-03-24 11:00:00 15.2 18 Sur 33 Sudoeste 0 939.4 0.4 37
2019-03-24 10:00:00 13.4 17 Sur 29 Sur 0 939.5 0.9 42
2019-03-24 09:00:00 10.2 8 Sudoeste 15 Sudoeste 0 939.2 0.6 57
2019-03-24 08:00:00 6 4 Sudeste 12 Sudeste 0 939 0.5 70
2019-03-24 07:00:00 3.1 10 Sudeste 15 Sudeste 0 938.6 0.2 79
2019-03-24 06:00:00 3.5 3 Sudeste 9 Sudeste 0 938.6 0 78
2019-03-24 05:00:00 3.9 6 Sudeste 13 Este 0 938.5 -0.7 78
2019-03-24 04:00:00 4.8 5 Este 22 Sudeste 0 938.4 -1.2 74
2019-03-24 03:00:00 6.2 16 Sudeste 24 Sudeste 0 938.6 -1.2 74
2019-03-24 02:00:00 5.7 12 Sudeste 21 Sudeste 0 939.2 -0.6 76
2019-03-24 01:00:00 6.1 4 Sudeste 16 Sur 0 939.6 -0.1 71
2019-03-24 00:00:00 7.4 11 Sur 17 Sur 0 939.8 0.5 70
2019-03-23 23:00:00 8.2 12 Sur 18 Sudoeste 0 939.8 0.9 65
2019-03-23 22:00:00 10.3 12 Sur 29 Sur 0 939.7 1.1 57
2019-03-23 21:00:00 10.8 17 Sur 24 Sur 0 939.3 1 53
2019-03-23 20:00:00 12.5 17 Sur 38 Sur 0 938.9 0.6 45
2019-03-23 19:00:00 14.2 20 Sur 43 Sur 0 938.6 0.1 40
2019-03-23 18:00:00 15.7 26 Sur 41 Sur 0 938.3 -0.4 37
2019-03-23 17:00:00 16.4 18 Sudoeste 45 Sudoeste 0 938.3 -0.7 37
2019-03-23 16:00:00 16.8 23 Sudoeste 46 Sudoeste 0 938.5 -1.5 35
2019-03-23 15:00:00 16.8 22 Sur 52 Sur 0 938.7 -1.8 35
2019-03-23 14:00:00 17.3 26 Sur 49 Sudeste 0 939 -2.1 33
2019-03-23 13:00:00 16.1 31 Sur 47 Sur 0 940 -1.6 35
2019-03-23 12:00:00 15.2 23 Sur 38 Sur 0 940.5 -0.9 39
2019-03-23 11:00:00 12.9 14 Sur 26 Sur 0 941.1 -0.2 44
2019-03-23 10:00:00 11.2 12 Sur 20 Sur 0 941.6 0.7 50
2019-03-23 09:00:00 7.7 6 Sudeste 13 Sudeste 0 941.4 0.7 63
2019-03-23 08:00:00 5.3 8 Sudeste 17 Sudeste 0 941.3 0.7 68
2019-03-23 07:00:00 2.6 10 Sudeste 19 Sudeste 0 940.9 0 74
2019-03-23 06:00:00 2.2 10 Este 16 Este 0 940.7 -0.8 75
2019-03-23 05:00:00 2.7 12 Este 18 Este 0 940.6 -1.1 75
2019-03-23 04:00:00 2.9 13 Este 19 Este 0 940.9 -0.8 74
2019-03-23 03:00:00 2.6 9 Este 12 Este 0 941.5 -0.4 75
2019-03-23 02:00:00 2.7 9 Este 13 Este 0 941.7 -0.4 72
2019-03-23 01:00:00 3.9 10 Este 15 Este 0 941.7 -0.3 69
2019-03-23 00:00:00 5.9 6 Este 11 Sudoeste 0 941.9 0.4 63
2019-03-22 23:00:00 7.2 6 Sur 13 Sur 0 942.1 1.3 59
2019-03-22 22:00:00 8.5 5 Sur 14 Sudoeste 0 942 1.8 56
2019-03-22 21:00:00 10.4 9 Sudoeste 24 Sur 0 941.5 1.8 52
2019-03-22 20:00:00 11.5 10 Sudoeste 31 Sudoeste 0 940.8 1.5 48
2019-03-22 19:00:00 13.5 19 Sudoeste 36 Sudoeste 0 940.2 0.8 43
2019-03-22 18:00:00 15.2 22 Sur 40 Sur 0 939.7 -0.1 37
2019-03-22 17:00:00 16.2 19 Sur 43 Sudeste 0 939.3 -1 32
2019-03-22 16:00:00 16.7 21 Sur 44 Sur 0 939.4 -1.7 31
2019-03-22 15:00:00 16.6 22 Sur 46 Sur 0 939.8 -1.7 30
2019-03-22 14:00:00 16.3 22 Sur 37 Sur 0 940.3 -1.6 31
2019-03-22 13:00:00 15.1 19 Sur 38 Sur 0 941.1 -1 27
2019-03-22 12:00:00 14.1 21 Sur 36 Sur 0 941.5 -0.6 27
2019-03-22 11:00:00 12.5 20 Sur 36 Sur 0 941.9 0 29
2019-03-22 10:00:00 9.8 13 Sudeste 23 Sudeste 0 942.1 0.6 41
2019-03-22 09:00:00 5.8 12 Sudeste 22 Sudeste 0 942.1 0.8 54
2019-03-22 08:00:00 1.7 13 Este 20 Este 0 941.9 0.6 67
2019-03-22 07:00:00 -1.4 11 Este 16 Este 0 941.5 0.2 78
2019-03-22 06:00:00 -0.6 8 Este 20 Este 0 941.3 -0.4 75
2019-03-22 05:00:00 -0.8 10 Este 18 Este 0 941.3 -0.5 75
2019-03-22 04:00:00 -0.7 12 Este 16 Este 0 941.3 -0.7 75
2019-03-22 03:00:00 -0.2 8 Este 14 Este 0 941.7 -0.6 71
2019-03-22 02:00:00 1.8 9 Este 12 Sudeste 0 941.8 -0.4 68
2019-03-22 01:00:00 2.2 5 Sudeste 12 Sur 0 942 0.3 63
2019-03-22 00:00:00 4.8 8 Sur 19 Sur 0 942.3 1 56
2019-03-21 23:00:00 5.3 15 Sur 21 Sur 0 942.2 1.5 50
2019-03-21 22:00:00 6.5 15 Sur 22 Sur 0 941.7 1.6 46
2019-03-21 21:00:00 7.5 10 Sur 22 Sudoeste 0 941.3 1.7 44
2019-03-21 20:00:00 9.4 12 Sudoeste 24 Sudoeste 0 940.7 1.3 36
2019-03-21 19:00:00 11.2 13 Sudoeste 33 Sudoeste 0 940.1 0.6 31
2019-03-21 18:00:00 12.8 16 Sudoeste 37 Sudoeste 0 939.6 -0.2 28
2019-03-21 17:00:00 13.6 18 Sudoeste 35 Sudoeste 0 939.4 -1.1 26
2019-03-21 16:00:00 13.6 17 Sur 32 Sur 0 939.5 -2 25
2019-03-21 15:00:00 13.9 18 Sur 35 Sur 0 939.8 -2 26
2019-03-21 14:00:00 14.1 12 Sudoeste 36 Sur 0 940.5 -1.7 26
2019-03-21 13:00:00 12.8 17 Sur 34 Sur 0 941.5 -1 27
2019-03-21 12:00:00 11.6 18 Sur 35 Sur 0 941.8 -0.7 31
2019-03-21 11:00:00 11.4 6 Sudoeste 19 Sur 0 942.2 -0.1 36
2019-03-21 10:00:00 9.1 7 Sudeste 17 Sudeste 0 942.5 0.5 53
2019-03-21 09:00:00 5.2 9 Este 20 Sudeste 0 942.5 0.8 68
2019-03-21 08:00:00 1.4 10 Este 17 Este 0 942.3 1.1 80
2019-03-21 07:00:00 -1.4 10 Este 14 Este 0 942 0.7 87
2019-03-21 06:00:00 -0.4 6 Este 11 Este 0 941.7 -0.1 82
2019-03-21 05:00:00 0.2 7 Sudeste 13 Este 0 941.2 -0.7 83
2019-03-21 04:00:00 1.9 10 Sudeste 15 Sudeste 0 941.3 -0.7 78
2019-03-21 03:00:00 2.8 11 Sudeste 22 Sur 0 941.8 -0.3 74
2019-03-21 02:00:00 3.9 9 Sur 17 Sur 0 941.9 -0.2 66
2019-03-21 01:00:00 4.9 10 Sur 24 Sur 0 942 0.2 61
2019-03-21 00:00:00 6.5 15 Sudoeste 31 Sudoeste 0 942.1 1.2 56